Time;durP1;ratioP1;P1;durP2;ratioP2;P2;SDS_P1;SDS_P2;PMS_P1;PMS_P2;Temp;Humidity;BMP_temperature;BMP_pressure;BME280_temperature;BME280_humidity;BME280_pressure;Samples;Min_cycle;Max_cycle;Signal;HPM_P1;HPM_P2
2023/07/28 00:00:53;;;;;;;;;;;19.50;99.90;;;;;;5027478;28;19925;-61
2023/07/28 00:03:20;;;;;;;;;;;19.50;99.90;;;;;;5039821;28;19928;-60
2023/07/28 00:05:47;;;;;;;;;;;19.50;99.90;;;;;;5028669;28;20388;-62
2023/07/28 00:08:13;;;;;;;;;;;19.50;99.90;;;;;;5041575;28;19928;-60
2023/07/28 00:10:41;;;;;;;;;;;19.50;99.90;;;;;;5059418;28;19924;-61
2023/07/28 00:13:08;;;;;;;;;;;19.40;99.90;;;;;;5046319;28;19928;-60
2023/07/28 00:15:35;;;;;;;;;;;19.40;99.90;;;;;;5035966;28;19924;-60
2023/07/28 00:18:02;;;;;;;;;;;19.40;99.90;;;;;;5048600;28;20366;-60
2023/07/28 00:20:28;;;;;;;;;;;19.40;99.90;;;;;;5033104;28;19927;-60
2023/07/28 00:22:55;;;;;;;;;;;19.40;99.90;;;;;;5034865;28;19921;-61
2023/07/28 00:25:22;;;;;;;;;;;19.40;99.90;;;;;;5035488;28;19921;-61
2023/07/28 00:27:48;;;;;;;;;;;19.30;99.90;;;;;;5032642;28;20388;-60
2023/07/28 00:30:15;;;;;;;;;;;19.30;99.90;;;;;;5037604;28;19980;-61
2023/07/28 00:32:42;;;;;;;;;;;19.30;99.90;;;;;;5030732;28;19925;-60
2023/07/28 00:35:09;;;;;;;;;;;19.20;99.90;;;;;;5039417;28;19929;-60
2023/07/28 00:37:35;;;;;;;;;;;19.30;99.90;;;;;;5031154;28;19975;-61
2023/07/28 00:40:03;;;;;;;;;;;19.20;99.90;;;;;;5038328;28;19928;-62
2023/07/28 00:42:29;;;;;;;;;;;19.20;99.90;;;;;;5029448;28;19924;-60
2023/07/28 00:44:56;;;;;;;;;;;19.20;99.90;;;;;;5037786;28;20512;-60
2023/07/28 00:47:23;;;;;;;;;;;19.20;99.90;;;;;;5053009;28;19932;-60
2023/07/28 00:49:49;;;;;;;;;;;19.30;99.90;;;;;;5049984;28;19920;-60
2023/07/28 00:52:16;;;;;;;;;;;19.30;99.90;;;;;;5055766;28;19921;-60
2023/07/28 00:54:43;;;;;;;;;;;19.30;99.90;;;;;;5044385;28;19967;-61
2023/07/28 00:57:10;;;;;;;;;;;19.20;99.90;;;;;;5028890;28;20351;-63
2023/07/28 00:59:36;;;;;;;;;;;19.30;99.90;;;;;;5038412;28;19920;-60
2023/07/28 01:02:03;;;;;;;;;;;19.30;99.90;;;;;;5029977;28;20326;-60
2023/07/28 01:04:30;;;;;;;;;;;19.30;99.90;;;;;;5036080;28;19921;-60
2023/07/28 01:07:10;;;;;;;;;;;19.20;99.90;;;;;;5047526;28;19925;-61
2023/07/28 01:09:40;;;;;;;;;;;19.20;99.90;;;;;;5033058;28;19921;-60
2023/07/28 01:12:07;;;;;;;;;;;19.20;99.90;;;;;;5041479;28;20388;-61
2023/07/28 01:14:34;;;;;;;;;;;19.20;99.90;;;;;;5045431;28;20355;-62
2023/07/28 01:17:01;;;;;;;;;;;19.20;99.90;;;;;;5036103;28;19925;-59
2023/07/28 01:19:27;;;;;;;;;;;19.20;99.90;;;;;;5031704;28;19932;-59
2023/07/28 01:22:24;;;;;;;;;;;19.20;99.90;;;;;;5038072;28;19925;-59
2023/07/28 01:25:03;;;;;;;;;;;19.20;99.90;;;;;;5032328;28;19928;-59
2023/07/28 01:27:30;;;;;;;;;;;19.20;99.90;;;;;;5034477;28;19921;-60
2023/07/28 01:29:56;;;;;;;;;;;19.20;99.90;;;;;;5033778;28;19975;-60
2023/07/28 01:32:23;;;;;;;;;;;19.20;99.90;;;;;;5038190;28;19978;-59
2023/07/28 01:34:50;;;;;;;;;;;19.20;99.90;;;;;;5044810;28;19925;-57
2023/07/28 01:37:16;;;;;;;;;;;19.20;99.90;;;;;;5041671;28;19932;-59
2023/07/28 01:39:43;;;;;;;;;;;19.20;99.90;;;;;;4710598;28;9999733;-59
2023/07/28 01:42:10;;;;;;;;;;;19.10;99.90;;;;;;5034464;28;19978;-60
2023/07/28 01:44:36;;;;;;;;;;;19.10;99.90;;;;;;5057344;28;19936;-59
2023/07/28 01:47:03;;;;;;;;;;;19.10;99.90;;;;;;5039941;28;19921;-59
2023/07/28 01:49:30;;;;;;;;;;;19.10;99.90;;;;;;5028145;28;19929;-58
2023/07/28 01:51:57;;;;;;;;;;;19.00;99.90;;;;;;5040287;28;19940;-60
2023/07/28 01:54:23;;;;;;;;;;;19.00;99.90;;;;;;5029097;28;19925;-60
2023/07/28 01:56:50;;;;;;;;;;;19.00;99.90;;;;;;5031371;28;19921;-60
2023/07/28 01:59:17;;;;;;;;;;;19.00;99.90;;;;;;5047520;28;19920;-60
2023/07/28 02:01:43;;;;;;;;;;;19.00;99.90;;;;;;5041231;28;19990;-59
2023/07/28 02:04:10;;;;;;;;;;;19.00;99.90;;;;;;5044509;28;19925;-60
2023/07/28 02:06:37;;;;;;;;;;;19.00;99.90;;;;;;5040656;28;19948;-59
2023/07/28 02:09:04;;;;;;;;;;;19.00;99.90;;;;;;5046883;28;19920;-60
2023/07/28 02:11:31;;;;;;;;;;;19.00;99.90;;;;;;5045437;28;19928;-59
2023/07/28 02:13:58;;;;;;;;;;;19.00;99.90;;;;;;5038430;28;19966;-59
2023/07/28 02:16:27;;;;;;;;;;;19.00;99.90;;;;;;5039004;28;20275;-60
2023/07/28 02:18:54;;;;;;;;;;;19.00;99.90;;;;;;5050735;28;19921;-60
2023/07/28 02:21:20;;;;;;;;;;;19.00;99.90;;;;;;5045258;28;19927;-59
2023/07/28 02:23:48;;;;;;;;;;;19.00;99.90;;;;;;5050817;28;19924;-60
2023/07/28 02:26:14;;;;;;;;;;;19.00;99.90;;;;;;5042880;28;19932;-60
2023/07/28 02:28:41;;;;;;;;;;;18.90;99.90;;;;;;5042071;28;20249;-60
2023/07/28 02:31:08;;;;;;;;;;;18.90;99.90;;;;;;5038807;28;20359;-59
2023/07/28 02:33:36;;;;;;;;;;;18.90;99.90;;;;;;5038416;28;20054;-60
2023/07/28 02:36:06;;;;;;;;;;;18.80;99.90;;;;;;5050297;28;20365;-59
2023/07/28 02:38:33;;;;;;;;;;;18.80;99.90;;;;;;5043580;28;20394;-59
2023/07/28 02:40:59;;;;;;;;;;;18.80;99.90;;;;;;5038626;28;19921;-60
2023/07/28 02:43:26;;;;;;;;;;;18.70;99.90;;;;;;5048213;28;19936;-60
2023/07/28 02:45:53;;;;;;;;;;;18.80;99.90;;;;;;5043747;28;19925;-59
2023/07/28 02:48:21;;;;;;;;;;;18.70;99.90;;;;;;5043309;28;19924;-59
2023/07/28 02:50:48;;;;;;;;;;;18.70;99.90;;;;;;5052493;28;19924;-59
2023/07/28 02:53:15;;;;;;;;;;;18.70;99.90;;;;;;5048925;28;19928;-60
2023/07/28 02:55:44;;;;;;;;;;;18.70;99.90;;;;;;5039096;28;20034;-59
2023/07/28 02:58:11;;;;;;;;;;;18.70;99.90;;;;;;5042538;28;19921;-59
2023/07/28 03:00:38;;;;;;;;;;;18.60;99.90;;;;;;5046988;28;20406;-59
2023/07/28 03:03:05;;;;;;;;;;;18.60;99.90;;;;;;5054523;28;19928;-60
2023/07/28 03:05:32;;;;;;;;;;;18.60;99.90;;;;;;5057587;28;19968;-59
2023/07/28 03:07:59;;;;;;;;;;;18.60;99.90;;;;;;5044807;28;20403;-60
2023/07/28 03:10:26;;;;;;;;;;;18.40;99.90;;;;;;5044757;28;19921;-60
2023/07/28 03:12:52;;;;;;;;;;;18.40;99.90;;;;;;5046213;28;19921;-59
2023/07/28 03:15:20;;;;;;;;;;;18.40;99.90;;;;;;5037693;28;19990;-60
2023/07/28 03:17:46;;;;;;;;;;;18.40;99.90;;;;;;5047979;28;20403;-57
2023/07/28 03:20:13;;;;;;;;;;;18.40;99.90;;;;;;5043651;28;19924;-60
2023/07/28 03:22:40;;;;;;;;;;;18.40;99.90;;;;;;5047159;28;19927;-59
2023/07/28 03:25:07;;;;;;;;;;;18.50;99.90;;;;;;5042811;28;19929;-61
2023/07/28 03:27:34;;;;;;;;;;;18.40;99.90;;;;;;5049596;28;20368;-59
2023/07/28 03:30:00;;;;;;;;;;;18.40;99.90;;;;;;5049767;28;20017;-61
2023/07/28 03:32:27;;;;;;;;;;;18.40;99.90;;;;;;5045779;28;19943;-60
2023/07/28 03:34:54;;;;;;;;;;;18.40;99.90;;;;;;5037657;28;19925;-60
2023/07/28 03:37:21;;;;;;;;;;;18.50;99.90;;;;;;5062552;28;19920;-59
2023/07/28 03:39:48;;;;;;;;;;;18.50;99.90;;;;;;5049644;28;19927;-60
2023/07/28 03:42:15;;;;;;;;;;;18.40;99.90;;;;;;5048472;28;19927;-59
2023/07/28 03:44:41;;;;;;;;;;;18.40;99.90;;;;;;5042998;28;19920;-59
2023/07/28 03:47:08;;;;;;;;;;;18.40;99.90;;;;;;5039452;28;19921;-59
2023/07/28 03:49:35;;;;;;;;;;;18.30;99.90;;;;;;5034284;28;19944;-59
2023/07/28 03:52:02;;;;;;;;;;;18.30;99.90;;;;;;5047456;28;19924;-60
2023/07/28 03:54:28;;;;;;;;;;;18.30;99.90;;;;;;5046343;28;20059;-60
2023/07/28 03:56:55;;;;;;;;;;;18.30;99.90;;;;;;5047612;28;19975;-60
2023/07/28 03:59:22;;;;;;;;;;;18.30;99.90;;;;;;5046213;28;19967;-60
2023/07/28 04:01:48;;;;;;;;;;;18.40;99.90;;;;;;5036106;28;20518;-59
2023/07/28 04:04:15;;;;;;;;;;;18.40;99.90;;;;;;5052254;28;19927;-60
2023/07/28 04:06:42;;;;;;;;;;;18.30;99.90;;;;;;5042342;28;19921;-60
2023/07/28 04:09:09;;;;;;;;;;;18.30;99.90;;;;;;5029497;28;19921;-60
2023/07/28 04:11:36;;;;;;;;;;;18.40;99.90;;;;;;5042680;28;20341;-59
2023/07/28 04:14:03;;;;;;;;;;;18.30;99.90;;;;;;5049026;28;20405;-60
2023/07/28 04:16:30;;;;;;;;;;;18.30;99.90;;;;;;5041994;28;20002;-60
2023/07/28 04:18:57;;;;;;;;;;;18.30;99.90;;;;;;5028925;28;20008;-59
2023/07/28 04:21:23;;;;;;;;;;;18.30;99.90;;;;;;5039759;28;19925;-59
2023/07/28 04:23:50;;;;;;;;;;;18.20;99.90;;;;;;5049040;28;19927;-60
2023/07/28 04:26:17;;;;;;;;;;;18.20;99.90;;;;;;5043629;28;19921;-60
2023/07/28 04:28:44;;;;;;;;;;;18.20;99.90;;;;;;5033558;28;19929;-60
2023/07/28 04:31:11;;;;;;;;;;;18.20;99.90;;;;;;5034943;28;20441;-60
2023/07/28 04:33:40;;;;;;;;;;;18.30;99.90;;;;;;5047349;28;20294;-61
2023/07/28 04:36:07;;;;;;;;;;;18.30;99.90;;;;;;5045235;28;20368;-62
2023/07/28 04:38:34;;;;;;;;;;;18.30;99.90;;;;;;5037517;28;19935;-61
2023/07/28 04:41:00;;;;;;;;;;;18.30;99.90;;;;;;5033393;28;19975;-61
2023/07/28 04:43:27;;;;;;;;;;;18.40;99.90;;;;;;5039680;28;19925;-60
2023/07/28 04:45:54;;;;;;;;;;;18.30;99.90;;;;;;5031252;28;19921;-61
2023/07/28 04:48:21;;;;;;;;;;;18.30;99.90;;;;;;5046066;28;19920;-62
2023/07/28 04:50:48;;;;;;;;;;;18.30;99.90;;;;;;5046459;28;19935;-61
2023/07/28 04:53:15;;;;;;;;;;;18.40;99.90;;;;;;5039485;28;20371;-60
2023/07/28 04:55:41;;;;;;;;;;;18.40;99.90;;;;;;5028660;28;19925;-60
2023/07/28 04:58:08;;;;;;;;;;;18.30;99.90;;;;;;5035607;28;19929;-60
2023/07/28 05:00:35;;;;;;;;;;;18.20;99.90;;;;;;5046103;28;19921;-60
2023/07/28 05:03:01;;;;;;;;;;;18.30;99.90;;;;;;5042304;28;19921;-60
2023/07/28 05:05:29;;;;;;;;;;;18.30;99.90;;;;;;5047904;28;19920;-60
2023/07/28 05:07:55;;;;;;;;;;;18.30;99.90;;;;;;5036517;28;19949;-60
2023/07/28 05:10:22;;;;;;;;;;;18.30;99.90;;;;;;5045997;28;19928;-60
2023/07/28 05:12:49;;;;;;;;;;;18.20;99.90;;;;;;5040220;28;19928;-60
2023/07/28 05:15:16;;;;;;;;;;;18.20;99.90;;;;;;5043940;28;19928;-60
2023/07/28 05:17:42;;;;;;;;;;;18.30;99.90;;;;;;5043073;28;19928;-60
2023/07/28 05:20:09;;;;;;;;;;;18.20;99.90;;;;;;5038169;28;19936;-61
2023/07/28 05:22:36;;;;;;;;;;;18.20;99.90;;;;;;5046263;28;19920;-60
2023/07/28 05:25:03;;;;;;;;;;;18.20;99.90;;;;;;5055433;28;19928;-60
2023/07/28 05:27:30;;;;;;;;;;;18.20;99.90;;;;;;5043908;28;19925;-60
2023/07/28 05:29:57;;;;;;;;;;;18.30;99.90;;;;;;5040998;28;19924;-60
2023/07/28 05:32:23;;;;;;;;;;;18.30;99.90;;;;;;5044583;28;19947;-60
2023/07/28 05:34:50;;;;;;;;;;;18.30;99.90;;;;;;5037224;28;19921;-60
2023/07/28 05:37:17;;;;;;;;;;;18.20;99.90;;;;;;5047937;28;19921;-60
2023/07/28 05:39:44;;;;;;;;;;;18.10;99.90;;;;;;5056090;28;19967;-60
2023/07/28 05:42:10;;;;;;;;;;;18.10;99.90;;;;;;5053964;28;20167;-60
2023/07/28 05:44:37;;;;;;;;;;;18.00;99.90;;;;;;5044735;28;19920;-59
2023/07/28 05:47:04;;;;;;;;;;;17.90;99.90;;;;;;5051127;28;19963;-60
2023/07/28 05:49:31;;;;;;;;;;;17.90;99.90;;;;;;5051704;28;19924;-59
2023/07/28 05:51:58;;;;;;;;;;;17.90;99.90;;;;;;5037303;28;20007;-60
2023/07/28 05:54:25;;;;;;;;;;;17.80;99.90;;;;;;5045204;28;20426;-60
2023/07/28 05:56:52;;;;;;;;;;;17.90;99.90;;;;;;5039917;28;19928;-60
2023/07/28 05:59:18;;;;;;;;;;;17.90;99.90;;;;;;5040144;28;20357;-61
2023/07/28 06:01:45;;;;;;;;;;;18.00;99.90;;;;;;5048568;28;19939;-58
2023/07/28 06:04:12;;;;;;;;;;;18.00;99.90;;;;;;5043406;28;20040;-60
2023/07/28 06:06:38;;;;;;;;;;;18.10;99.90;;;;;;5053416;28;20402;-60
2023/07/28 06:09:05;;;;;;;;;;;18.20;99.90;;;;;;5044108;28;19921;-60
2023/07/28 06:11:32;;;;;;;;;;;18.30;99.90;;;;;;5051114;28;20312;-60
2023/07/28 06:13:59;;;;;;;;;;;18.40;99.90;;;;;;5033829;28;19925;-60
2023/07/28 06:16:26;;;;;;;;;;;18.40;99.90;;;;;;5042755;28;19952;-59
2023/07/28 06:18:53;;;;;;;;;;;18.40;99.90;;;;;;5050129;28;19972;-62
2023/07/28 06:21:19;;;;;;;;;;;18.40;99.90;;;;;;5042754;28;19924;-60
2023/07/28 06:23:46;;;;;;;;;;;18.20;99.90;;;;;;5048575;28;19932;-60
2023/07/28 06:26:13;;;;;;;;;;;18.10;99.90;;;;;;5038280;28;19921;-72
2023/07/28 06:28:39;;;;;;;;;;;18.10;99.90;;;;;;5033947;28;20384;-60
2023/07/28 06:31:07;;;;;;;;;;;18.20;99.90;;;;;;5047594;28;19924;-60
2023/07/28 06:33:33;;;;;;;;;;;18.20;99.90;;;;;;5047204;28;20565;-58
2023/07/28 06:36:00;;;;;;;;;;;18.00;99.90;;;;;;5040285;28;19943;-59
2023/07/28 06:38:27;;;;;;;;;;;18.10;99.90;;;;;;5049583;28;19921;-60
2023/07/28 06:40:55;;;;;;;;;;;18.20;99.90;;;;;;5045340;28;19928;-60
2023/07/28 06:43:21;;;;;;;;;;;18.30;99.90;;;;;;5048259;28;20032;-61
2023/07/28 06:45:52;;;;;;;;;;;18.30;99.90;;;;;;5048403;28;20269;-60
2023/07/28 06:48:18;;;;;;;;;;;18.20;99.90;;;;;;5032422;28;20015;-61
2023/07/28 06:50:45;;;;;;;;;;;18.30;99.90;;;;;;5035061;28;20398;-60
2023/07/28 06:53:12;;;;;;;;;;;18.30;99.90;;;;;;5050277;28;19920;-60
2023/07/28 06:55:39;;;;;;;;;;;18.40;99.90;;;;;;5045912;28;20421;-59
2023/07/28 06:58:06;;;;;;;;;;;18.50;99.90;;;;;;5037105;28;19997;-60
2023/07/28 07:00:33;;;;;;;;;;;18.50;99.90;;;;;;5048638;28;19927;-60
2023/07/28 07:03:00;;;;;;;;;;;18.60;99.90;;;;;;5050358;28;20019;-61
2023/07/28 07:05:27;;;;;;;;;;;18.70;99.90;;;;;;5048522;28;19955;-59
2023/07/28 07:07:54;;;;;;;;;;;18.70;99.90;;;;;;5046833;28;20494;-60
2023/07/28 07:10:21;;;;;;;;;;;18.70;99.90;;;;;;5048507;28;19974;-59
2023/07/28 07:12:48;;;;;;;;;;;18.70;99.90;;;;;;5045540;28;19920;-59
2023/07/28 07:15:15;;;;;;;;;;;18.80;99.90;;;;;;5050160;28;19924;-58
2023/07/28 07:17:42;;;;;;;;;;;18.90;99.90;;;;;;5040198;28;19927;-57
2023/07/28 07:20:10;;;;;;;;;;;18.90;99.90;;;;;;5030109;28;20015;-59
2023/07/28 07:22:37;;;;;;;;;;;18.80;99.90;;;;;;5042717;28;20269;-58
2023/07/28 07:25:04;;;;;;;;;;;18.80;99.90;;;;;;5048591;28;20141;-59
2023/07/28 07:27:31;;;;;;;;;;;18.80;99.90;;;;;;5041407;28;19920;-60
2023/07/28 07:29:58;;;;;;;;;;;18.80;99.90;;;;;;5047497;28;20375;-60
2023/07/28 07:32:25;;;;;;;;;;;18.80;99.90;;;;;;5043117;28;19920;-57
2023/07/28 07:34:53;;;;;;;;;;;18.80;99.90;;;;;;5049924;28;19927;-58
2023/07/28 07:37:19;;;;;;;;;;;18.80;99.90;;;;;;5048264;28;19924;-58
2023/07/28 07:39:46;;;;;;;;;;;18.70;99.90;;;;;;5049880;28;20447;-59
2023/07/28 07:42:14;;;;;;;;;;;18.70;99.90;;;;;;5046316;28;19920;-58
2023/07/28 07:44:41;;;;;;;;;;;18.70;99.90;;;;;;5037691;28;19925;-58
2023/07/28 07:47:14;;;;;;;;;;;18.50;99.90;;;;;;5031660;28;20317;-58
2023/07/28 07:49:41;;;;;;;;;;;18.50;99.90;;;;;;5046680;28;19920;-59
2023/07/28 07:52:11;;;;;;;;;;;18.60;99.90;;;;;;5046060;28;20119;-58
2023/07/28 07:54:37;;;;;;;;;;;18.70;99.90;;;;;;5020564;28;20299;-58
2023/07/28 07:57:04;;;;;;;;;;;18.80;99.90;;;;;;5046005;28;19921;-58
2023/07/28 07:59:32;;;;;;;;;;;18.80;99.90;;;;;;4695483;28;10000151;-58
2023/07/28 08:02:02;;;;;;;;;;;18.80;99.90;;;;;;5042347;28;19948;-58
2023/07/28 08:04:31;;;;;;;;;;;18.90;99.90;;;;;;5036138;28;20012;-58
2023/07/28 08:06:58;;;;;;;;;;;18.90;99.90;;;;;;5024201;28;19929;-59
2023/07/28 08:09:25;;;;;;;;;;;18.80;99.90;;;;;;5036894;28;20024;-59
2023/07/28 08:11:52;;;;;;;;;;;18.90;99.90;;;;;;5036708;28;19955;-61
2023/07/28 08:14:19;;;;;;;;;;;19.00;99.90;;;;;;5031685;28;19929;-58
2023/07/28 08:16:46;;;;;;;;;;;19.00;99.90;;;;;;5043980;28;19924;-59
2023/07/28 08:19:13;;;;;;;;;;;19.10;99.90;;;;;;5038833;28;20264;-59
2023/07/28 08:21:40;;;;;;;;;;;19.20;99.90;;;;;;5028473;28;20372;-59
2023/07/28 08:24:06;;;;;;;;;;;19.30;99.90;;;;;;5029414;28;20360;-59
2023/07/28 08:26:33;;;;;;;;;;;19.30;99.90;;;;;;5039644;28;19951;-58
2023/07/28 08:29:00;;;;;;;;;;;19.30;99.90;;;;;;5039744;28;19970;-59
2023/07/28 08:31:27;;;;;;;;;;;19.20;99.90;;;;;;5032784;28;20438;-59
2023/07/28 08:33:54;;;;;;;;;;;19.20;99.90;;;;;;5031620;28;19921;-59
2023/07/28 08:36:21;;;;;;;;;;;19.30;99.90;;;;;;5035449;28;20028;-59
2023/07/28 08:38:48;;;;;;;;;;;19.40;99.90;;;;;;5040696;28;19921;-60
2023/07/28 08:41:15;;;;;;;;;;;19.40;99.90;;;;;;5034627;28;20032;-59
2023/07/28 08:43:42;;;;;;;;;;;19.60;99.90;;;;;;5031859;28;19921;-59
2023/07/28 08:46:09;;;;;;;;;;;19.70;99.90;;;;;;5033346;28;20007;-59
2023/07/28 08:48:36;;;;;;;;;;;19.80;99.90;;;;;;5044398;28;20372;-59
2023/07/28 08:51:04;;;;;;;;;;;19.90;99.90;;;;;;5038955;28;19921;-59
2023/07/28 08:53:31;;;;;;;;;;;19.90;99.90;;;;;;5044729;28;19920;-58
2023/07/28 08:55:58;;;;;;;;;;;19.90;99.90;;;;;;5039425;28;19931;-59
2023/07/28 08:58:25;;;;;;;;;;;19.90;99.90;;;;;;5044705;28;19921;-59
2023/07/28 09:00:52;;;;;;;;;;;19.90;99.90;;;;;;5036224;28;19922;-58
2023/07/28 09:03:19;;;;;;;;;;;19.90;99.90;;;;;;5044959;28;19970;-58
2023/07/28 09:05:46;;;;;;;;;;;19.90;99.90;;;;;;5022426;28;19958;-59
2023/07/28 09:08:13;;;;;;;;;;;20.00;99.90;;;;;;5037399;28;19931;-58
2023/07/28 09:10:43;;;;;;;;;;;20.00;99.90;;;;;;5042410;28;19921;-56
2023/07/28 09:13:11;;;;;;;;;;;20.00;99.90;;;;;;5045094;28;19921;-58
2023/07/28 09:15:42;;;;;;;;;;;20.00;99.90;;;;;;5043410;28;20048;-58
2023/07/28 09:18:10;;;;;;;;;;;20.10;99.90;;;;;;5044403;28;20295;-58
2023/07/28 09:20:37;;;;;;;;;;;20.20;99.90;;;;;;5048156;28;19925;-59
2023/07/28 09:23:05;;;;;;;;;;;20.30;99.90;;;;;;5051591;28;21342;-59
2023/07/28 09:25:32;;;;;;;;;;;20.30;99.90;;;;;;5046668;28;19928;-58
2023/07/28 09:27:59;;;;;;;;;;;20.30;99.90;;;;;;5041417;28;19944;-59
2023/07/28 09:30:26;;;;;;;;;;;20.30;99.90;;;;;;5044725;28;20364;-58
2023/07/28 09:32:53;;;;;;;;;;;20.30;99.90;;;;;;5035883;28;19924;-58
2023/07/28 09:35:21;;;;;;;;;;;20.30;99.90;;;;;;5046321;28;19924;-56
2023/07/28 09:37:49;;;;;;;;;;;20.40;99.90;;;;;;5039784;28;20015;-59
2023/07/28 09:40:16;;;;;;;;;;;20.40;99.90;;;;;;5046958;28;19974;-57
2023/07/28 09:42:49;;;;;;;;;;;20.50;99.90;;;;;;5034988;28;19928;-58
2023/07/28 09:45:19;;;;;;;;;;;20.50;99.90;;;;;;5029379;28;19928;-58
2023/07/28 09:48:05;;;;;;;;;;;20.30;99.90;;;;;;5045124;28;19995;-58
2023/07/28 09:50:32;;;;;;;;;;;20.30;99.90;;;;;;5048079;28;20107;-58
2023/07/28 09:53:01;;;;;;;;;;;20.30;99.90;;;;;;5033359;28;19967;-58
2023/07/28 09:55:28;;;;;;;;;;;20.50;99.90;;;;;;5028463;28;19925;-58
2023/07/28 09:57:55;;;;;;;;;;;20.60;99.90;;;;;;5041831;28;19931;-58
2023/07/28 10:00:22;;;;;;;;;;;20.80;99.90;;;;;;5047949;28;19998;-59
2023/07/28 10:02:50;;;;;;;;;;;20.90;99.90;;;;;;5035898;28;20406;-58
2023/07/28 10:05:17;;;;;;;;;;;21.00;99.90;;;;;;5035312;28;20023;-58
2023/07/28 10:07:44;;;;;;;;;;;21.20;99.90;;;;;;5047000;28;19962;-59
2023/07/28 10:10:13;;;;;;;;;;;21.20;99.90;;;;;;5048560;28;19931;-58
2023/07/28 10:12:47;;;;;;;;;;;21.30;99.90;;;;;;5039027;28;19979;-58
2023/07/28 10:15:17;;;;;;;;;;;21.30;99.90;;;;;;5030636;28;20035;-58
2023/07/28 10:17:45;;;;;;;;;;;21.30;99.90;;;;;;5034688;28;20323;-57
2023/07/28 10:20:30;;;;;;;;;;;21.30;99.90;;;;;;5047529;28;20011;-58
2023/07/28 10:23:23;;;;;;;;;;;21.20;99.90;;;;;;5040306;28;19932;-58
2023/07/28 10:25:57;;;;;;;;;;;21.30;99.90;;;;;;5044431;28;19928;-59
2023/07/28 10:28:34;;;;;;;;;;;21.40;99.90;;;;;;5040899;28;19925;-57
2023/07/28 10:31:01;;;;;;;;;;;21.50;99.90;;;;;;5048246;28;20399;-58
2023/07/28 10:33:41;;;;;;;;;;;21.60;99.90;;;;;;5040663;28;19932;-58
2023/07/28 10:36:12;;;;;;;;;;;21.70;99.90;;;;;;5031130;28;20388;-58
2023/07/28 10:38:39;;;;;;;;;;;21.70;99.90;;;;;;5018119;28;19924;-58
2023/07/28 10:41:07;;;;;;;;;;;21.80;99.90;;;;;;5047808;28;19925;-58
2023/07/28 10:43:34;;;;;;;;;;;22.00;99.90;;;;;;5043231;28;19923;-59
2023/07/28 10:46:00;;;;;;;;;;;22.10;99.90;;;;;;5035014;28;19952;-58
2023/07/28 10:48:27;;;;;;;;;;;22.10;99.90;;;;;;5030538;28;19932;-56
2023/07/28 10:50:54;;;;;;;;;;;21.90;99.90;;;;;;5047368;28;19928;-56
2023/07/28 10:53:21;;;;;;;;;;;21.90;99.90;;;;;;5043706;28;19924;-59
2023/07/28 10:55:48;;;;;;;;;;;21.90;99.90;;;;;;5045243;28;19924;-58
2023/07/28 10:58:15;;;;;;;;;;;21.60;99.90;;;;;;5044836;28;19943;-59
2023/07/28 11:00:41;;;;;;;;;;;21.40;99.90;;;;;;5042858;28;20383;-58
2023/07/28 11:03:09;;;;;;;;;;;21.30;99.90;;;;;;5044834;28;19978;-58
2023/07/28 11:05:37;;;;;;;;;;;21.20;99.90;;;;;;5034628;28;19971;-56
2023/07/28 11:08:04;;;;;;;;;;;21.20;99.90;;;;;;5046467;28;20420;-59
2023/07/28 11:10:31;;;;;;;;;;;21.20;99.90;;;;;;5032323;28;19921;-58
2023/07/28 11:12:59;;;;;;;;;;;21.30;99.90;;;;;;5046825;28;19929;-57
2023/07/28 11:15:36;;;;;;;;;;;21.30;99.90;;;;;;5039114;28;20035;-59
2023/07/28 11:18:04;;;;;;;;;;;21.30;99.90;;;;;;5026864;28;19932;-58
2023/07/28 11:20:31;;;;;;;;;;;21.30;99.90;;;;;;5031975;28;20016;-58
2023/07/28 11:22:59;;;;;;;;;;;21.30;99.90;;;;;;5045605;28;20038;-58
2023/07/28 11:25:26;;;;;;;;;;;21.20;99.90;;;;;;5036413;28;19925;-58
2023/07/28 11:27:53;;;;;;;;;;;21.20;99.90;;;;;;5042752;28;19932;-59
2023/07/28 11:30:19;;;;;;;;;;;21.30;99.90;;;;;;5040931;28;19920;-58
2023/07/28 11:32:46;;;;;;;;;;;21.30;99.90;;;;;;5031749;28;20348;-58
2023/07/28 11:35:14;;;;;;;;;;;21.20;99.90;;;;;;5033277;28;19935;-57
2023/07/28 11:37:41;;;;;;;;;;;21.10;99.90;;;;;;5038120;28;20481;-59
2023/07/28 11:40:10;;;;;;;;;;;21.20;99.90;;;;;;5038935;28;20214;-57
2023/07/28 11:42:38;;;;;;;;;;;21.20;99.90;;;;;;5035603;28;20383;-59
2023/07/28 11:45:07;;;;;;;;;;;21.10;99.90;;;;;;5034279;28;19928;-59
2023/07/28 11:47:33;;;;;;;;;;;21.00;99.90;;;;;;5034836;28;20387;-59
2023/07/28 11:50:00;;;;;;;;;;;20.90;99.90;;;;;;5038037;28;20003;-59
2023/07/28 11:52:34;;;;;;;;;;;21.00;99.90;;;;;;5034411;28;19943;-59
2023/07/28 11:55:02;;;;;;;;;;;21.20;99.90;;;;;;5043608;28;19935;-58
2023/07/28 11:57:30;;;;;;;;;;;21.10;99.90;;;;;;5040923;28;19974;-59
2023/07/28 11:59:57;;;;;;;;;;;21.20;99.90;;;;;;5043683;28;20055;-59
2023/07/28 12:02:25;;;;;;;;;;;21.20;99.90;;;;;;5041016;28;19925;-59
2023/07/28 12:04:54;;;;;;;;;;;21.30;99.90;;;;;;5045001;28;19924;-59
2023/07/28 12:07:33;;;;;;;;;;;21.20;99.90;;;;;;5039520;28;19974;-56
2023/07/28 12:10:05;;;;;;;;;;;21.40;99.90;;;;;;5035205;28;19943;-58
2023/07/28 12:12:38;;;;;;;;;;;21.50;99.90;;;;;;5031474;28;19921;-60
2023/07/28 12:15:37;;;;;;;;;;;21.60;99.90;;;;;;5045523;28;20320;-59
2023/07/28 12:18:08;;;;;;;;;;;21.80;99.90;;;;;;5040988;28;19929;-59
2023/07/28 12:20:38;;;;;;;;;;;22.00;99.90;;;;;;5044953;28;19924;-60
2023/07/28 12:23:06;;;;;;;;;;;22.20;99.90;;;;;;5037657;28;19925;-59
2023/07/28 12:25:36;;;;;;;;;;;22.40;99.90;;;;;;5038593;28;19924;-59
2023/07/28 12:28:03;;;;;;;;;;;22.50;99.90;;;;;;5031989;28;19924;-59
2023/07/28 12:30:29;;;;;;;;;;;22.60;99.90;;;;;;5045264;28;20387;-57
2023/07/28 12:32:56;;;;;;;;;;;22.80;99.90;;;;;;5039721;28;19924;-58
2023/07/28 12:35:30;;;;;;;;;;;23.00;99.90;;;;;;5041729;28;19924;-58
2023/07/28 12:38:00;;;;;;;;;;;23.20;99.90;;;;;;5043474;28;19978;-57
2023/07/28 12:40:28;;;;;;;;;;;23.20;99.90;;;;;;5037057;28;19925;-59
2023/07/28 12:42:58;;;;;;;;;;;23.20;99.90;;;;;;5034388;28;20399;-60
2023/07/28 12:45:27;;;;;;;;;;;23.20;99.90;;;;;;5042338;28;19928;-59
2023/07/28 12:48:14;;;;;;;;;;;23.10;99.90;;;;;;5038585;28;19929;-59
2023/07/28 12:50:44;;;;;;;;;;;22.80;99.90;;;;;;5040763;28;19924;-59
2023/07/28 12:53:11;;;;;;;;;;;22.70;99.90;;;;;;5035838;28;19925;-59
2023/07/28 12:55:42;;;;;;;;;;;22.70;99.90;;;;;;5040645;28;20058;-59
2023/07/28 12:58:12;;;;;;;;;;;22.70;99.90;;;;;;5039787;28;20159;-59
2023/07/28 13:00:41;;;;;;;;;;;22.70;99.90;;;;;;5041877;28;19977;-59
2023/07/28 13:03:11;;;;;;;;;;;22.70;99.90;;;;;;5037629;28;19925;-59
2023/07/28 13:05:38;;;;;;;;;;;22.60;99.90;;;;;;5033473;28;19956;-58
2023/07/28 13:08:05;;;;;;;;;;;22.60;99.90;;;;;;5027555;28;19921;-58
2023/07/28 13:10:34;;;;;;;;;;;22.40;99.90;;;;;;5044860;28;19924;-60
2023/07/28 13:13:04;;;;;;;;;;;22.40;99.90;;;;;;5041754;28;19924;-58
2023/07/28 13:15:32;;;;;;;;;;;22.20;99.90;;;;;;5044387;28;19931;-58
2023/07/28 13:17:58;;;;;;;;;;;22.10;99.90;;;;;;5043170;28;19920;-58
2023/07/28 13:20:25;;;;;;;;;;;22.00;99.90;;;;;;5037398;28;19920;-59
2023/07/28 13:22:52;;;;;;;;;;;21.90;99.90;;;;;;5046030;28;19921;-58
2023/07/28 13:25:19;;;;;;;;;;;22.00;99.90;;;;;;5035170;28;20382;-59
2023/07/28 13:27:46;;;;;;;;;;;22.00;99.90;;;;;;5028380;28;20027;-59
2023/07/28 13:30:12;;;;;;;;;;;22.10;99.90;;;;;;5037183;28;19924;-59
2023/07/28 13:32:39;;;;;;;;;;;22.30;99.90;;;;;;5028525;28;20319;-59
2023/07/28 13:35:06;;;;;;;;;;;22.40;99.90;;;;;;5041325;28;20284;-59
2023/07/28 13:37:34;;;;;;;;;;;22.60;99.90;;;;;;5038527;28;20390;-58
2023/07/28 13:40:00;;;;;;;;;;;22.70;99.90;;;;;;5042227;28;19925;-59
2023/07/28 13:42:27;;;;;;;;;;;22.70;99.90;;;;;;5047898;28;20107;-60
2023/07/28 13:44:54;;;;;;;;;;;22.90;99.90;;;;;;5044789;28;19944;-59
2023/07/28 13:47:24;;;;;;;;;;;23.10;99.90;;;;;;5047479;28;19920;-59
2023/07/28 13:49:51;;;;;;;;;;;23.40;99.90;;;;;;5042588;28;20035;-58
2023/07/28 13:52:18;;;;;;;;;;;23.50;99.90;;;;;;5047617;28;20346;-59
2023/07/28 13:54:48;;;;;;;;;;;23.30;99.90;;;;;;5043727;28;20007;-58
2023/07/28 13:57:18;;;;;;;;;;;23.20;99.90;;;;;;5035877;28;19944;-58
2023/07/28 13:59:45;;;;;;;;;;;23.20;99.90;;;;;;5031949;28;19925;-58
2023/07/28 14:02:12;;;;;;;;;;;23.30;99.90;;;;;;5041319;28;19921;-59
2023/07/28 14:04:39;;;;;;;;;;;23.40;99.90;;;;;;5048523;28;19967;-58
2023/07/28 14:07:06;;;;;;;;;;;23.60;99.90;;;;;;5044090;28;19925;-58
2023/07/28 14:09:33;;;;;;;;;;;23.90;99.90;;;;;;5033957;28;19920;-58
2023/07/28 14:11:59;;;;;;;;;;;24.30;99.90;;;;;;5039385;28;19928;-59
2023/07/28 14:14:26;;;;;;;;;;;24.20;99.90;;;;;;5050139;28;19931;-61
2023/07/28 14:16:53;;;;;;;;;;;24.40;99.90;;;;;;5042687;28;19921;-59
2023/07/28 14:19:19;;;;;;;;;;;24.60;99.90;;;;;;5031700;28;19967;-59